sensor_id;sensor_type;location;lat;lon;timestamp;P1;durP1;ratioP1;P2;durP2;ratioP2
39772;SDS011;25451;51.960;6.250;2023-11-21T00:00:20;10.57;;;5.33;;
39772;SDS011;25451;51.960;6.250;2023-11-21T00:02:45;11.23;;;5.03;;
39772;SDS011;25451;51.960;6.250;2023-11-21T00:05:11;12.43;;;5.37;;
39772;SDS011;25451;51.960;6.250;2023-11-21T00:07:39;11.23;;;5.32;;
39772;SDS011;25451;51.960;6.250;2023-11-21T00:10:05;13.80;;;6.25;;
39772;SDS011;25451;51.960;6.250;2023-11-21T00:12:31;13.98;;;6.05;;
39772;SDS011;25451;51.960;6.250;2023-11-21T00:14:58;13.52;;;5.80;;
39772;SDS011;25451;51.960;6.250;2023-11-21T00:17:23;12.37;;;6.20;;
39772;SDS011;25451;51.960;6.250;2023-11-21T00:19:49;11.97;;;5.30;;
39772;SDS011;25451;51.960;6.250;2023-11-21T00:22:14;12.02;;;5.70;;
39772;SDS011;25451;51.960;6.250;2023-11-21T00:24:41;9.82;;;4.82;;
39772;SDS011;25451;51.960;6.250;2023-11-21T00:27:06;11.27;;;5.30;;
39772;SDS011;25451;51.960;6.250;2023-11-21T00:29:31;9.33;;;4.80;;
39772;SDS011;25451;51.960;6.250;2023-11-21T00:31:57;11.07;;;5.55;;
39772;SDS011;25451;51.960;6.250;2023-11-21T00:34:23;12.07;;;5.30;;
39772;SDS011;25451;51.960;6.250;2023-11-21T00:36:48;11.13;;;5.65;;
39772;SDS011;25451;51.960;6.250;2023-11-21T00:39:13;12.85;;;5.25;;
39772;SDS011;25451;51.960;6.250;2023-11-21T00:41:38;12.70;;;5.60;;
39772;SDS011;25451;51.960;6.250;2023-11-21T00:44:04;11.97;;;5.83;;
39772;SDS011;25451;51.960;6.250;2023-11-21T00:46:29;10.63;;;5.20;;
39772;SDS011;25451;51.960;6.250;2023-11-21T00:48:55;10.87;;;5.67;;
39772;SDS011;25451;51.960;6.250;2023-11-21T00:51:20;11.60;;;5.53;;
39772;SDS011;25451;51.960;6.250;2023-11-21T00:53:47;12.02;;;5.38;;
39772;SDS011;25451;51.960;6.250;2023-11-21T00:56:12;13.90;;;6.50;;
39772;SDS011;25451;51.960;6.250;2023-11-21T00:58:38;11.30;;;5.57;;
39772;SDS011;25451;51.960;6.250;2023-11-21T01:01:07;13.43;;;6.23;;
39772;SDS011;25451;51.960;6.250;2023-11-21T01:03:33;11.70;;;5.15;;
39772;SDS011;25451;51.960;6.250;2023-11-21T01:05:58;12.07;;;5.60;;
39772;SDS011;25451;51.960;6.250;2023-11-21T01:08:24;13.23;;;5.73;;
39772;SDS011;25451;51.960;6.250;2023-11-21T01:10:49;12.07;;;5.73;;
39772;SDS011;25451;51.960;6.250;2023-11-21T01:13:14;11.13;;;5.82;;
39772;SDS011;25451;51.960;6.250;2023-11-21T01:15:40;11.23;;;5.65;;
39772;SDS011;25451;51.960;6.250;2023-11-21T01:18:06;10.70;;;4.95;;
39772;SDS011;25451;51.960;6.250;2023-11-21T01:20:31;13.17;;;6.27;;
39772;SDS011;25451;51.960;6.250;2023-11-21T01:22:57;8.93;;;4.90;;
39772;SDS011;25451;51.960;6.250;2023-11-21T01:25:22;9.80;;;4.70;;
39772;SDS011;25451;51.960;6.250;2023-11-21T01:27:48;15.00;;;6.13;;
39772;SDS011;25451;51.960;6.250;2023-11-21T01:30:13;12.70;;;5.77;;
39772;SDS011;25451;51.960;6.250;2023-11-21T01:32:38;11.32;;;5.90;;
39772;SDS011;25451;51.960;6.250;2023-11-21T01:35:04;15.60;;;5.87;;
39772;SDS011;25451;51.960;6.250;2023-11-21T01:37:31;13.80;;;5.97;;
39772;SDS011;25451;51.960;6.250;2023-11-21T01:39:58;16.10;;;6.45;;
39772;SDS011;25451;51.960;6.250;2023-11-21T01:42:24;11.53;;;5.43;;
39772;SDS011;25451;51.960;6.250;2023-11-21T01:44:49;17.23;;;7.28;;
39772;SDS011;25451;51.960;6.250;2023-11-21T01:47:14;13.97;;;6.43;;
39772;SDS011;25451;51.960;6.250;2023-11-21T01:49:43;13.33;;;6.23;;
39772;SDS011;25451;51.960;6.250;2023-11-21T01:52:09;15.98;;;6.32;;
39772;SDS011;25451;51.960;6.250;2023-11-21T01:54:36;14.15;;;6.78;;
39772;SDS011;25451;51.960;6.250;2023-11-21T01:57:02;12.90;;;5.78;;
39772;SDS011;25451;51.960;6.250;2023-11-21T01:59:33;14.80;;;6.22;;
39772;SDS011;25451;51.960;6.250;2023-11-21T02:02:01;13.03;;;6.10;;
39772;SDS011;25451;51.960;6.250;2023-11-21T02:04:31;13.13;;;6.47;;
39772;SDS011;25451;51.960;6.250;2023-11-21T02:07:01;14.68;;;6.40;;
39772;SDS011;25451;51.960;6.250;2023-11-21T02:09:30;17.05;;;7.00;;
39772;SDS011;25451;51.960;6.250;2023-11-21T02:11:56;12.95;;;6.05;;
39772;SDS011;25451;51.960;6.250;2023-11-21T02:14:23;12.47;;;6.00;;
39772;SDS011;25451;51.960;6.250;2023-11-21T02:16:50;17.10;;;7.15;;
39772;SDS011;25451;51.960;6.250;2023-11-21T02:19:18;15.98;;;6.82;;
39772;SDS011;25451;51.960;6.250;2023-11-21T02:21:47;13.37;;;6.60;;
39772;SDS011;25451;51.960;6.250;2023-11-21T02:24:14;15.27;;;6.78;;
39772;SDS011;25451;51.960;6.250;2023-11-21T02:26:42;14.18;;;6.43;;
39772;SDS011;25451;51.960;6.250;2023-11-21T02:29:07;13.63;;;6.40;;
39772;SDS011;25451;51.960;6.250;2023-11-21T02:31:35;16.05;;;6.55;;
39772;SDS011;25451;51.960;6.250;2023-11-21T02:34:02;14.73;;;6.75;;
39772;SDS011;25451;51.960;6.250;2023-11-21T02:36:28;18.47;;;6.90;;
39772;SDS011;25451;51.960;6.250;2023-11-21T02:38:53;14.63;;;6.70;;
39772;SDS011;25451;51.960;6.250;2023-11-21T02:41:18;15.63;;;7.03;;
39772;SDS011;25451;51.960;6.250;2023-11-21T02:43:44;15.40;;;7.23;;
39772;SDS011;25451;51.960;6.250;2023-11-21T02:46:09;16.10;;;6.68;;
39772;SDS011;25451;51.960;6.250;2023-11-21T02:48:34;15.13;;;6.82;;
39772;SDS011;25451;51.960;6.250;2023-11-21T02:51:01;15.40;;;6.83;;
39772;SDS011;25451;51.960;6.250;2023-11-21T02:53:26;15.70;;;6.70;;
39772;SDS011;25451;51.960;6.250;2023-11-21T02:55:51;14.50;;;6.47;;
39772;SDS011;25451;51.960;6.250;2023-11-21T02:58:17;14.55;;;6.78;;
39772;SDS011;25451;51.960;6.250;2023-11-21T03:00:42;14.90;;;6.77;;
39772;SDS011;25451;51.960;6.250;2023-11-21T03:03:07;18.03;;;7.90;;
39772;SDS011;25451;51.960;6.250;2023-11-21T03:05:33;29.70;;;8.70;;
39772;SDS011;25451;51.960;6.250;2023-11-21T03:08:00;26.20;;;8.95;;
39772;SDS011;25451;51.960;6.250;2023-11-21T03:10:25;21.37;;;7.63;;
39772;SDS011;25451;51.960;6.250;2023-11-21T03:12:51;22.40;;;8.97;;
39772;SDS011;25451;51.960;6.250;2023-11-21T03:15:16;19.88;;;8.05;;
39772;SDS011;25451;51.960;6.250;2023-11-21T03:17:41;26.98;;;9.27;;
39772;SDS011;25451;51.960;6.250;2023-11-21T03:20:07;24.97;;;9.40;;
39772;SDS011;25451;51.960;6.250;2023-11-21T03:22:35;27.23;;;9.60;;
39772;SDS011;25451;51.960;6.250;2023-11-21T03:25:01;27.20;;;10.50;;
39772;SDS011;25451;51.960;6.250;2023-11-21T03:27:26;26.33;;;9.20;;
39772;SDS011;25451;51.960;6.250;2023-11-21T03:29:52;17.33;;;7.40;;
39772;SDS011;25451;51.960;6.250;2023-11-21T03:32:17;22.80;;;9.10;;
39772;SDS011;25451;51.960;6.250;2023-11-21T03:37:37;24.23;;;9.25;;
39772;SDS011;25451;51.960;6.250;2023-11-21T03:40:06;28.80;;;10.67;;
39772;SDS011;25451;51.960;6.250;2023-11-21T03:42:33;29.75;;;9.95;;
39772;SDS011;25451;51.960;6.250;2023-11-21T03:44:58;21.37;;;8.80;;
39772;SDS011;25451;51.960;6.250;2023-11-21T03:47:24;27.17;;;9.90;;
39772;SDS011;25451;51.960;6.250;2023-11-21T03:49:51;21.65;;;9.00;;
39772;SDS011;25451;51.960;6.250;2023-11-21T03:52:16;24.97;;;8.80;;
39772;SDS011;25451;51.960;6.250;2023-11-21T03:54:41;26.40;;;9.97;;
39772;SDS011;25451;51.960;6.250;2023-11-21T03:57:07;32.35;;;9.90;;
39772;SDS011;25451;51.960;6.250;2023-11-21T03:59:34;24.58;;;9.52;;
39772;SDS011;25451;51.960;6.250;2023-11-21T04:01:59;28.53;;;10.60;;
39772;SDS011;25451;51.960;6.250;2023-11-21T04:04:25;25.87;;;9.50;;
39772;SDS011;25451;51.960;6.250;2023-11-21T04:06:50;28.67;;;10.37;;
39772;SDS011;25451;51.960;6.250;2023-11-21T04:09:16;28.08;;;10.25;;
39772;SDS011;25451;51.960;6.250;2023-11-21T04:11:42;30.13;;;10.73;;
39772;SDS011;25451;51.960;6.250;2023-11-21T04:14:07;28.23;;;10.17;;
39772;SDS011;25451;51.960;6.250;2023-11-21T04:16:34;28.23;;;10.88;;
39772;SDS011;25451;51.960;6.250;2023-11-21T04:18:59;26.77;;;10.40;;
39772;SDS011;25451;51.960;6.250;2023-11-21T04:21:25;28.35;;;10.20;;
39772;SDS011;25451;51.960;6.250;2023-11-21T04:23:50;25.67;;;9.97;;
39772;SDS011;25451;51.960;6.250;2023-11-21T04:26:16;25.57;;;9.90;;
39772;SDS011;25451;51.960;6.250;2023-11-21T04:28:41;27.90;;;10.52;;
39772;SDS011;25451;51.960;6.250;2023-11-21T04:31:06;30.03;;;10.60;;
39772;SDS011;25451;51.960;6.250;2023-11-21T04:33:32;26.03;;;10.00;;
39772;SDS011;25451;51.960;6.250;2023-11-21T04:35:57;28.90;;;10.53;;
39772;SDS011;25451;51.960;6.250;2023-11-21T04:38:22;25.07;;;10.23;;
39772;SDS011;25451;51.960;6.250;2023-11-21T04:40:48;25.87;;;10.77;;
39772;SDS011;25451;51.960;6.250;2023-11-21T04:43:13;26.20;;;10.50;;
39772;SDS011;25451;51.960;6.250;2023-11-21T04:45:38;29.37;;;10.77;;
39772;SDS011;25451;51.960;6.250;2023-11-21T04:48:05;24.80;;;10.05;;
39772;SDS011;25451;51.960;6.250;2023-11-21T04:50:31;24.95;;;9.82;;
39772;SDS011;25451;51.960;6.250;2023-11-21T04:52:57;24.20;;;9.83;;
39772;SDS011;25451;51.960;6.250;2023-11-21T04:55:22;22.63;;;9.80;;
39772;SDS011;25451;51.960;6.250;2023-11-21T04:57:47;26.83;;;10.50;;
39772;SDS011;25451;51.960;6.250;2023-11-21T05:00:13;23.57;;;10.33;;
39772;SDS011;25451;51.960;6.250;2023-11-21T05:02:39;24.05;;;10.13;;
39772;SDS011;25451;51.960;6.250;2023-11-21T05:05:06;26.55;;;10.40;;
39772;SDS011;25451;51.960;6.250;2023-11-21T05:07:32;23.50;;;9.30;;
39772;SDS011;25451;51.960;6.250;2023-11-21T05:10:00;22.67;;;9.65;;
39772;SDS011;25451;51.960;6.250;2023-11-21T05:12:30;23.80;;;9.88;;
39772;SDS011;25451;51.960;6.250;2023-11-21T05:14:58;23.77;;;9.85;;
39772;SDS011;25451;51.960;6.250;2023-11-21T05:17:24;22.40;;;8.90;;
39772;SDS011;25451;51.960;6.250;2023-11-21T05:19:49;20.77;;;8.80;;
39772;SDS011;25451;51.960;6.250;2023-11-21T05:22:14;21.23;;;8.90;;
39772;SDS011;25451;51.960;6.250;2023-11-21T05:24:39;25.67;;;9.77;;
39772;SDS011;25451;51.960;6.250;2023-11-21T05:27:05;25.03;;;10.50;;
39772;SDS011;25451;51.960;6.250;2023-11-21T05:29:30;24.67;;;10.20;;
39772;SDS011;25451;51.960;6.250;2023-11-21T05:31:56;23.97;;;10.43;;
39772;SDS011;25451;51.960;6.250;2023-11-21T05:34:21;26.42;;;9.88;;
39772;SDS011;25451;51.960;6.250;2023-11-21T05:36:49;25.63;;;10.57;;
39772;SDS011;25451;51.960;6.250;2023-11-21T05:39:14;25.25;;;9.20;;
39772;SDS011;25451;51.960;6.250;2023-11-21T05:41:42;25.75;;;9.90;;
39772;SDS011;25451;51.960;6.250;2023-11-21T05:44:07;26.23;;;10.20;;
39772;SDS011;25451;51.960;6.250;2023-11-21T05:46:34;27.27;;;10.10;;
39772;SDS011;25451;51.960;6.250;2023-11-21T05:48:59;25.20;;;10.17;;
39772;SDS011;25451;51.960;6.250;2023-11-21T05:51:25;25.47;;;9.80;;
39772;SDS011;25451;51.960;6.250;2023-11-21T05:53:50;29.53;;;10.47;;
39772;SDS011;25451;51.960;6.250;2023-11-21T05:56:15;27.83;;;10.57;;
39772;SDS011;25451;51.960;6.250;2023-11-21T05:58:41;27.13;;;9.93;;
39772;SDS011;25451;51.960;6.250;2023-11-21T06:01:06;26.10;;;9.97;;
39772;SDS011;25451;51.960;6.250;2023-11-21T06:03:34;27.27;;;10.25;;
39772;SDS011;25451;51.960;6.250;2023-11-21T06:05:59;26.97;;;9.87;;
39772;SDS011;25451;51.960;6.250;2023-11-21T06:08:24;28.40;;;9.97;;
39772;SDS011;25451;51.960;6.250;2023-11-21T06:10:50;27.43;;;10.30;;
39772;SDS011;25451;51.960;6.250;2023-11-21T06:13:15;29.80;;;9.50;;
39772;SDS011;25451;51.960;6.250;2023-11-21T06:15:40;30.33;;;10.30;;
39772;SDS011;25451;51.960;6.250;2023-11-21T06:18:06;24.37;;;9.23;;
39772;SDS011;25451;51.960;6.250;2023-11-21T06:20:34;25.08;;;9.90;;
39772;SDS011;25451;51.960;6.250;2023-11-21T06:23:02;25.13;;;9.23;;
39772;SDS011;25451;51.960;6.250;2023-11-21T06:25:28;25.38;;;10.15;;
39772;SDS011;25451;51.960;6.250;2023-11-21T06:27:54;29.10;;;9.20;;
39772;SDS011;25451;51.960;6.250;2023-11-21T06:30:19;21.93;;;8.57;;
39772;SDS011;25451;51.960;6.250;2023-11-21T06:32:45;23.20;;;8.85;;
39772;SDS011;25451;51.960;6.250;2023-11-21T06:35:13;21.73;;;9.00;;
39772;SDS011;25451;51.960;6.250;2023-11-21T06:37:40;20.92;;;8.70;;
39772;SDS011;25451;51.960;6.250;2023-11-21T06:40:05;21.67;;;8.57;;
39772;SDS011;25451;51.960;6.250;2023-11-21T06:42:32;22.40;;;8.00;;
39772;SDS011;25451;51.960;6.250;2023-11-21T06:44:58;21.63;;;8.80;;
39772;SDS011;25451;51.960;6.250;2023-11-21T06:47:24;18.67;;;8.20;;
39772;SDS011;25451;51.960;6.250;2023-11-21T06:49:54;18.67;;;7.70;;
39772;SDS011;25451;51.960;6.250;2023-11-21T06:52:20;18.58;;;7.68;;
39772;SDS011;25451;51.960;6.250;2023-11-21T06:54:47;17.10;;;7.93;;
39772;SDS011;25451;51.960;6.250;2023-11-21T06:57:14;19.00;;;7.40;;
39772;SDS011;25451;51.960;6.250;2023-11-21T06:59:40;17.52;;;8.10;;
39772;SDS011;25451;51.960;6.250;2023-11-21T07:02:05;16.70;;;7.77;;
39772;SDS011;25451;51.960;6.250;2023-11-21T07:04:31;16.50;;;7.97;;
39772;SDS011;25451;51.960;6.250;2023-11-21T07:06:57;18.00;;;8.17;;
39772;SDS011;25451;51.960;6.250;2023-11-21T07:09:23;17.67;;;7.95;;
39772;SDS011;25451;51.960;6.250;2023-11-21T07:11:48;18.00;;;8.07;;
39772;SDS011;25451;51.960;6.250;2023-11-21T07:14:14;18.07;;;7.67;;
39772;SDS011;25451;51.960;6.250;2023-11-21T07:16:40;18.50;;;8.98;;
39772;SDS011;25451;51.960;6.250;2023-11-21T07:19:05;17.33;;;7.60;;
39772;SDS011;25451;51.960;6.250;2023-11-21T07:21:32;18.73;;;8.23;;
39772;SDS011;25451;51.960;6.250;2023-11-21T07:23:59;16.17;;;7.72;;
39772;SDS011;25451;51.960;6.250;2023-11-21T07:26:25;17.13;;;8.15;;
39772;SDS011;25451;51.960;6.250;2023-11-21T07:28:51;16.10;;;7.87;;
39772;SDS011;25451;51.960;6.250;2023-11-21T07:31:16;15.87;;;7.63;;
39772;SDS011;25451;51.960;6.250;2023-11-21T07:33:42;15.50;;;7.83;;
39772;SDS011;25451;51.960;6.250;2023-11-21T07:36:07;18.90;;;7.90;;
39772;SDS011;25451;51.960;6.250;2023-11-21T07:38:33;17.02;;;8.13;;
39772;SDS011;25451;51.960;6.250;2023-11-21T07:40:58;18.63;;;7.93;;
39772;SDS011;25451;51.960;6.250;2023-11-21T07:43:26;18.30;;;8.83;;
39772;SDS011;25451;51.960;6.250;2023-11-21T07:45:51;18.33;;;7.80;;
39772;SDS011;25451;51.960;6.250;2023-11-21T07:48:17;18.77;;;7.73;;
39772;SDS011;25451;51.960;6.250;2023-11-21T07:50:42;20.23;;;8.53;;
39772;SDS011;25451;51.960;6.250;2023-11-21T07:53:07;17.77;;;8.27;;
39772;SDS011;25451;51.960;6.250;2023-11-21T07:55:33;15.77;;;7.87;;
39772;SDS011;25451;51.960;6.250;2023-11-21T07:57:58;16.87;;;8.33;;
39772;SDS011;25451;51.960;6.250;2023-11-21T08:00:24;17.88;;;7.70;;
39772;SDS011;25451;51.960;6.250;2023-11-21T08:02:49;17.63;;;7.83;;
39772;SDS011;25451;51.960;6.250;2023-11-21T08:05:14;18.60;;;8.87;;
39772;SDS011;25451;51.960;6.250;2023-11-21T08:07:40;19.77;;;9.52;;
39772;SDS011;25451;51.960;6.250;2023-11-21T08:10:06;20.38;;;9.15;;
39772;SDS011;25451;51.960;6.250;2023-11-21T08:12:31;20.57;;;8.90;;
39772;SDS011;25451;51.960;6.250;2023-11-21T08:14:57;21.00;;;9.10;;
39772;SDS011;25451;51.960;6.250;2023-11-21T08:17:22;19.53;;;9.33;;
39772;SDS011;25451;51.960;6.250;2023-11-21T08:19:48;19.20;;;8.77;;
39772;SDS011;25451;51.960;6.250;2023-11-21T08:22:17;18.73;;;9.25;;
39772;SDS011;25451;51.960;6.250;2023-11-21T08:24:46;18.33;;;9.38;;
39772;SDS011;25451;51.960;6.250;2023-11-21T08:27:11;18.13;;;8.87;;
39772;SDS011;25451;51.960;6.250;2023-11-21T08:29:41;18.70;;;9.30;;
39772;SDS011;25451;51.960;6.250;2023-11-21T08:32:07;21.30;;;9.60;;
39772;SDS011;25451;51.960;6.250;2023-11-21T08:34:32;21.20;;;9.77;;
39772;SDS011;25451;51.960;6.250;2023-11-21T08:36:58;17.65;;;8.65;;
39772;SDS011;25451;51.960;6.250;2023-11-21T08:39:23;20.10;;;9.10;;
39772;SDS011;25451;51.960;6.250;2023-11-21T08:41:49;19.70;;;9.07;;
39772;SDS011;25451;51.960;6.250;2023-11-21T08:44:15;18.70;;;8.88;;
39772;SDS011;25451;51.960;6.250;2023-11-21T08:46:43;20.02;;;9.55;;
39772;SDS011;25451;51.960;6.250;2023-11-21T08:49:10;20.23;;;9.30;;
39772;SDS011;25451;51.960;6.250;2023-11-21T08:51:36;18.35;;;9.20;;
39772;SDS011;25451;51.960;6.250;2023-11-21T08:54:02;20.58;;;9.90;;
39772;SDS011;25451;51.960;6.250;2023-11-21T08:56:29;17.77;;;9.18;;
39772;SDS011;25451;51.960;6.250;2023-11-21T08:58:55;23.03;;;9.93;;
39772;SDS011;25451;51.960;6.250;2023-11-21T09:01:20;20.27;;;10.00;;
39772;SDS011;25451;51.960;6.250;2023-11-21T09:03:46;20.90;;;10.13;;
39772;SDS011;25451;51.960;6.250;2023-11-21T09:06:12;21.70;;;9.48;;
39772;SDS011;25451;51.960;6.250;2023-11-21T09:08:39;20.00;;;9.77;;
39772;SDS011;25451;51.960;6.250;2023-11-21T09:11:04;20.47;;;9.33;;
39772;SDS011;25451;51.960;6.250;2023-11-21T09:13:30;20.52;;;9.52;;
39772;SDS011;25451;51.960;6.250;2023-11-21T09:15:55;18.40;;;9.50;;
39772;SDS011;25451;51.960;6.250;2023-11-21T09:18:21;17.70;;;9.10;;
39772;SDS011;25451;51.960;6.250;2023-11-21T09:20:46;18.00;;;9.00;;
39772;SDS011;25451;51.960;6.250;2023-11-21T09:23:12;18.20;;;9.23;;
39772;SDS011;25451;51.960;6.250;2023-11-21T09:25:37;20.63;;;10.05;;
39772;SDS011;25451;51.960;6.250;2023-11-21T09:28:03;21.80;;;10.00;;
39772;SDS011;25451;51.960;6.250;2023-11-21T09:30:33;20.88;;;10.05;;
39772;SDS011;25451;51.960;6.250;2023-11-21T09:32:58;22.73;;;10.70;;
39772;SDS011;25451;51.960;6.250;2023-11-21T09:35:24;22.45;;;10.60;;
39772;SDS011;25451;51.960;6.250;2023-11-21T09:37:49;21.00;;;9.97;;
39772;SDS011;25451;51.960;6.250;2023-11-21T09:40:17;21.50;;;9.95;;
39772;SDS011;25451;51.960;6.250;2023-11-21T09:43:06;22.35;;;10.35;;
39772;SDS011;25451;51.960;6.250;2023-11-21T09:45:36;22.10;;;10.40;;
39772;SDS011;25451;51.960;6.250;2023-11-21T09:48:03;23.92;;;10.50;;
39772;SDS011;25451;51.960;6.250;2023-11-21T09:50:31;21.95;;;10.45;;
39772;SDS011;25451;51.960;6.250;2023-11-21T09:53:03;21.15;;;10.10;;
39772;SDS011;25451;51.960;6.250;2023-11-21T09:55:49;20.60;;;9.88;;
39772;SDS011;25451;51.960;6.250;2023-11-21T09:58:17;20.80;;;9.77;;
39772;SDS011;25451;51.960;6.250;2023-11-21T10:00:45;22.83;;;10.02;;
39772;SDS011;25451;51.960;6.250;2023-11-21T10:03:17;22.70;;;10.00;;
39772;SDS011;25451;51.960;6.250;2023-11-21T10:05:43;20.70;;;9.47;;
39772;SDS011;25451;51.960;6.250;2023-11-21T10:08:10;20.15;;;9.75;;
39772;SDS011;25451;51.960;6.250;2023-11-21T10:10:36;20.02;;;9.43;;
39772;SDS011;25451;51.960;6.250;2023-11-21T10:13:03;17.83;;;8.63;;
39772;SDS011;25451;51.960;6.250;2023-11-21T10:15:32;24.02;;;9.77;;
39772;SDS011;25451;51.960;6.250;2023-11-21T10:18:03;24.80;;;10.23;;
39772;SDS011;25451;51.960;6.250;2023-11-21T10:20:31;23.65;;;9.15;;
39772;SDS011;25451;51.960;6.250;2023-11-21T10:22:58;26.50;;;11.15;;
39772;SDS011;25451;51.960;6.250;2023-11-21T10:25:24;26.33;;;10.20;;
39772;SDS011;25451;51.960;6.250;2023-11-21T10:27:50;24.27;;;9.98;;
39772;SDS011;25451;51.960;6.250;2023-11-21T10:30:36;27.70;;;11.20;;
39772;SDS011;25451;51.960;6.250;2023-11-21T10:33:02;24.75;;;10.05;;
39772;SDS011;25451;51.960;6.250;2023-11-21T10:35:38;24.50;;;10.52;;
39772;SDS011;25451;51.960;6.250;2023-11-21T10:38:05;20.92;;;9.07;;
39772;SDS011;25451;51.960;6.250;2023-11-21T10:40:30;22.17;;;9.83;;
39772;SDS011;25451;51.960;6.250;2023-11-21T10:42:59;18.10;;;8.13;;
39772;SDS011;25451;51.960;6.250;2023-11-21T10:45:31;20.92;;;9.02;;
39772;SDS011;25451;51.960;6.250;2023-11-21T10:47:57;22.50;;;9.77;;
39772;SDS011;25451;51.960;6.250;2023-11-21T10:50:22;22.40;;;9.10;;
39772;SDS011;25451;51.960;6.250;2023-11-21T10:52:48;24.60;;;9.27;;
39772;SDS011;25451;51.960;6.250;2023-11-21T10:55:17;18.77;;;8.83;;
39772;SDS011;25451;51.960;6.250;2023-11-21T10:57:46;18.45;;;8.27;;
39772;SDS011;25451;51.960;6.250;2023-11-21T11:00:14;18.95;;;8.13;;
39772;SDS011;25451;51.960;6.250;2023-11-21T11:02:41;18.77;;;8.43;;
39772;SDS011;25451;51.960;6.250;2023-11-21T11:05:07;19.05;;;7.80;;
39772;SDS011;25451;51.960;6.250;2023-11-21T11:07:36;16.65;;;7.65;;
39772;SDS011;25451;51.960;6.250;2023-11-21T11:10:05;18.58;;;7.95;;
39772;SDS011;25451;51.960;6.250;2023-11-21T11:12:33;16.00;;;7.68;;
39772;SDS011;25451;51.960;6.250;2023-11-21T11:15:00;14.97;;;7.03;;
39772;SDS011;25451;51.960;6.250;2023-11-21T11:17:27;16.52;;;7.38;;
39772;SDS011;25451;51.960;6.250;2023-11-21T11:19:53;15.27;;;7.90;;
39772;SDS011;25451;51.960;6.250;2023-11-21T11:22:25;16.20;;;7.70;;
39772;SDS011;25451;51.960;6.250;2023-11-21T11:25:17;16.50;;;7.47;;
39772;SDS011;25451;51.960;6.250;2023-11-21T11:34:05;14.75;;;5.97;;
39772;SDS011;25451;51.960;6.250;2023-11-21T11:36:20;15.48;;;6.13;;
39772;SDS011;25451;51.960;6.250;2023-11-21T11:38:51;14.35;;;6.18;;
39772;SDS011;25451;51.960;6.250;2023-11-21T11:41:24;11.93;;;5.50;;
39772;SDS011;25451;51.960;6.250;2023-11-21T11:43:54;12.75;;;6.30;;
39772;SDS011;25451;51.960;6.250;2023-11-21T11:46:20;14.75;;;6.18;;
39772;SDS011;25451;51.960;6.250;2023-11-21T11:48:48;13.82;;;5.60;;
39772;SDS011;25451;51.960;6.250;2023-11-21T11:51:28;12.80;;;5.85;;
39772;SDS011;25451;51.960;6.250;2023-11-21T11:53:53;15.68;;;6.13;;
39772;SDS011;25451;51.960;6.250;2023-11-21T11:58:48;12.43;;;5.75;;
39772;SDS011;25451;51.960;6.250;2023-11-21T12:01:16;12.57;;;5.40;;
39772;SDS011;25451;51.960;6.250;2023-11-21T12:03:43;11.77;;;5.68;;
39772;SDS011;25451;51.960;6.250;2023-11-21T12:06:09;12.17;;;5.60;;
39772;SDS011;25451;51.960;6.250;2023-11-21T12:08:36;15.27;;;6.40;;
39772;SDS011;25451;51.960;6.250;2023-11-21T12:11:02;13.07;;;6.18;;
39772;SDS011;25451;51.960;6.250;2023-11-21T12:13:28;14.60;;;6.07;;
39772;SDS011;25451;51.960;6.250;2023-11-21T12:15:53;14.17;;;6.70;;
39772;SDS011;25451;51.960;6.250;2023-11-21T12:18:20;17.40;;;6.63;;
39772;SDS011;25451;51.960;6.250;2023-11-21T12:20:46;15.93;;;6.93;;
39772;SDS011;25451;51.960;6.250;2023-11-21T12:23:13;14.23;;;6.65;;
39772;SDS011;25451;51.960;6.250;2023-11-21T12:25:41;15.77;;;6.75;;
39772;SDS011;25451;51.960;6.250;2023-11-21T12:28:07;16.67;;;7.70;;
39772;SDS011;25451;51.960;6.250;2023-11-21T12:30:33;15.77;;;6.83;;
39772;SDS011;25451;51.960;6.250;2023-11-21T12:33:01;16.23;;;7.80;;
39772;SDS011;25451;51.960;6.250;2023-11-21T12:35:31;16.05;;;7.32;;
39772;SDS011;25451;51.960;6.250;2023-11-21T12:37:59;17.75;;;7.78;;
39772;SDS011;25451;51.960;6.250;2023-11-21T12:40:25;18.47;;;7.60;;
39772;SDS011;25451;51.960;6.250;2023-11-21T12:42:52;15.70;;;6.93;;
39772;SDS011;25451;51.960;6.250;2023-11-21T12:45:23;18.17;;;7.28;;
39772;SDS011;25451;51.960;6.250;2023-11-21T12:47:56;14.38;;;6.30;;
39772;SDS011;25451;51.960;6.250;2023-11-21T12:50:24;19.35;;;7.57;;
39772;SDS011;25451;51.960;6.250;2023-11-21T12:52:54;16.25;;;7.15;;
39772;SDS011;25451;51.960;6.250;2023-11-21T12:55:22;20.27;;;7.63;;
39772;SDS011;25451;51.960;6.250;2023-11-21T12:57:49;18.77;;;7.40;;
39772;SDS011;25451;51.960;6.250;2023-11-21T13:00:29;19.10;;;6.63;;
39772;SDS011;25451;51.960;6.250;2023-11-21T13:02:58;15.13;;;7.13;;
39772;SDS011;25451;51.960;6.250;2023-11-21T13:05:24;15.90;;;7.10;;
39772;SDS011;25451;51.960;6.250;2023-11-21T13:07:58;19.50;;;7.57;;
39772;SDS011;25451;51.960;6.250;2023-11-21T13:10:27;13.93;;;6.25;;
39772;SDS011;25451;51.960;6.250;2023-11-21T13:13:02;19.33;;;6.88;;
39772;SDS011;25451;51.960;6.250;2023-11-21T13:15:33;19.42;;;7.57;;
39772;SDS011;25451;51.960;6.250;2023-11-21T13:18:00;19.27;;;7.43;;
39772;SDS011;25451;51.960;6.250;2023-11-21T13:20:26;15.77;;;6.90;;
39772;SDS011;25451;51.960;6.250;2023-11-21T13:25:25;21.02;;;7.68;;
39772;SDS011;25451;51.960;6.250;2023-11-21T13:27:55;18.33;;;7.10;;
39772;SDS011;25451;51.960;6.250;2023-11-21T13:30:21;18.55;;;7.00;;
39772;SDS011;25451;51.960;6.250;2023-11-21T13:32:58;19.37;;;7.23;;
39772;SDS011;25451;51.960;6.250;2023-11-21T13:35:31;18.58;;;6.65;;
39772;SDS011;25451;51.960;6.250;2023-11-21T13:38:03;19.92;;;7.15;;
39772;SDS011;25451;51.960;6.250;2023-11-21T13:40:31;18.02;;;7.13;;
39772;SDS011;25451;51.960;6.250;2023-11-21T13:42:56;21.83;;;7.80;;
39772;SDS011;25451;51.960;6.250;2023-11-21T13:45:25;16.55;;;6.70;;
39772;SDS011;25451;51.960;6.250;2023-11-21T13:47:52;16.83;;;7.00;;
39772;SDS011;25451;51.960;6.250;2023-11-21T13:50:25;18.60;;;6.10;;
39772;SDS011;25451;51.960;6.250;2023-11-21T13:52:57;14.43;;;5.30;;
39772;SDS011;25451;51.960;6.250;2023-11-21T13:55:28;15.20;;;5.75;;
39772;SDS011;25451;51.960;6.250;2023-11-21T13:57:53;14.07;;;5.40;;
39772;SDS011;25451;51.960;6.250;2023-11-21T14:00:18;12.45;;;4.95;;
39772;SDS011;25451;51.960;6.250;2023-11-21T14:03:03;12.02;;;4.45;;
39772;SDS011;25451;51.960;6.250;2023-11-21T14:05:33;15.85;;;5.43;;
39772;SDS011;25451;51.960;6.250;2023-11-21T14:07:59;14.55;;;5.05;;
39772;SDS011;25451;51.960;6.250;2023-11-21T14:10:29;15.37;;;5.23;;
39772;SDS011;25451;51.960;6.250;2023-11-21T14:13:08;16.00;;;5.82;;
39772;SDS011;25451;51.960;6.250;2023-11-21T14:15:38;18.00;;;5.93;;
39772;SDS011;25451;51.960;6.250;2023-11-21T14:18:08;16.70;;;5.70;;
39772;SDS011;25451;51.960;6.250;2023-11-21T14:20:38;14.43;;;5.13;;
39772;SDS011;25451;51.960;6.250;2023-11-21T14:23:05;14.90;;;5.37;;
39772;SDS011;25451;51.960;6.250;2023-11-21T14:25:32;14.30;;;5.13;;
39772;SDS011;25451;51.960;6.250;2023-11-21T14:27:58;13.50;;;5.22;;
39772;SDS011;25451;51.960;6.250;2023-11-21T14:30:23;14.00;;;5.27;;
39772;SDS011;25451;51.960;6.250;2023-11-21T14:32:49;14.23;;;5.28;;
39772;SDS011;25451;51.960;6.250;2023-11-21T14:35:15;13.77;;;4.93;;
39772;SDS011;25451;51.960;6.250;2023-11-21T14:37:42;12.17;;;4.90;;
39772;SDS011;25451;51.960;6.250;2023-11-21T14:40:08;11.77;;;4.53;;
39772;SDS011;25451;51.960;6.250;2023-11-21T14:42:33;12.27;;;4.70;;
39772;SDS011;25451;51.960;6.250;2023-11-21T14:45:02;13.23;;;4.90;;